Gurdon, AR (71743)

8:07 PM CDT on April 19, 2015 (GMT -0500)
Florence Mem AP, Arkadelphia, | | Change Station
CLOSE
Current Station
Airport
Location: Florence Mem AP, Arkadelphia,,
Elevation: 184 ft
Nearby Weather Stations
Active Advisory: Tornado Watch

Elev 184 ft 34.10 °N, 93.07 °W | Updated 11 minutes ago

Partly Cloudy
Partly Cloudy
71 °F
Feels Like 71 °F
N
8
Wind Variable Wind from WSW

Today
High -- | Low -- °F
--% Chance of Precip.
Yesterday
High -- | Low -- °F
Precip. -- in
6:37 AM 7:46 PM
New Moon, 2% visible
Pressure 29.67 in
Visibility 10.0 miles
Clouds Few 4500 ft
Scattered Clouds 6000 ft
Dew Point 68 °F
Humidity 91%
Rainfall 0.11 in
Snow Depth Not available.
UV 0 out of 12
Pollen 9.40 out of 12
Air Quality Not available.
Flu Activity Sporadic
METAR KADF 200056Z AUTO 24007KT 10SM FEW045 SCT060 22/20 A2963 RMK AO2 T02160200 LTG DSNT N AND NW SLP046

More Conditions Fewer Conditions

Pressure 29.67 in
Visibility 10.0 miles
Clouds Few 4500 ft
Scattered Clouds 6000 ft
Dew Point 68 °F
Humidity 91%
Rainfall 0.11 in
Snow Depth Not available.
UV 0 out of 12
Pollen 9.40 out of 12
Air Quality Not available.
Flu Activity Sporadic
METAR KADF 200056Z AUTO 24007KT 10SM FEW045 SCT060 22/20 A2963 RMK AO2 T02160200 LTG DSNT N AND NW SLP046

More Conditions Fewer Conditions

10-Day Weather Forecast

Almanac

Astronomy

Apr. 19, 2015 Rise Set
Actual Time
Civil Twilight
Nautical Twilight
Astronomical Twilight
Moon
Length of Visible Light
Length of Day
Tomorrow will be .
, % of the Moon is Illuminated

Today's Extremes

State Highs State Lows

Community

WunderPhotos

Upload Photos

1,815,080 photos uploaded!

WunderBlogs® & News

Nearby

Air Quality

  Air Quality AQ Index Pollutant
Not available.

Snow Depth

Station Depth Elevation

Earthquake Activity

City Distance Mag. Time & Date
Minimum magnitude displayed is 2.5.

Coastal Water Temperatures

Place Temperature

Stations

Nearby Weather Stations

Station Location Temp. Windchill Dew Point Humidity Wind Precip. Elev Updated Type
                   
Tornado Watch
Statement as of 8:03 PM CDT on April 19, 2015

Tornado Watch 83 remains in effect until 100 am CDT for the
following locations


AR
. Arkansas counties included are

Arkansas Ashley Bradley
Calhoun Chicot Clark
Cleburne Cleveland Columbia
Conway Craighead Crittenden
cross Dallas Desha
Drew Faulkner Garland
Grant Hot Spring Independence
Jackson Jefferson Lafayette
Lee Lincoln Lonoke
Mississippi Monroe Nevada
Ouachita Perry Phillips
Poinsett prairie Pulaski
St. Francis Saline Union
Van Buren white Woodruff